Las Vegas, NV

8:12 AM PST on March 03, 2015 (GMT -0800)
Wishing Well Estates | Change Station
CLOSE
Current Station
Personal Weather Station
Location: Las Vegas, NV
Elevation: 2083 ft
Nearby Weather Stations

Elev 2083 ft 36.05 °N, 115.13 °W | Updated 13 minutes ago

Clear
Clear
48.2 °F
Feels Like 46 °F
N
5.8
Wind Variable Wind from South

Today
High -- | Low -- °F
--% Chance of Precip.
Yesterday
High -- | Low -- °F
Precip. -- in
6:08 AM 5:37 PM
Waxing Gibbous, 96% visible
Pressure 29.90 in
Visibility 10.0 miles
Clouds Few 8000 ft
Windchill 46 °F
Dew Point 38 °F
Humidity 69%
Rainfall 0.00 in
Snow Depth Not available.
UV 1 out of 12
Pollen 8.80 out of 12
Air Quality Not available.
Flu Activity Not available.
METAR KLAS 031556Z 21006KT 10SM FEW080 08/02 A2990 RMK AO2 SLP124 T00830017

More Conditions Fewer Conditions

Pressure 29.90 in
Visibility 10.0 miles
Clouds Few 8000 ft
Windchill 46 °F
Dew Point 38 °F
Humidity 69%
Rainfall 0.00 in
Snow Depth Not available.
UV 1 out of 12
Pollen 8.80 out of 12
Air Quality Not available.
Flu Activity Not available.
METAR KLAS 031556Z 21006KT 10SM FEW080 08/02 A2990 RMK AO2 SLP124 T00830017

More Conditions Fewer Conditions

10-Day Weather Forecast

Almanac

Astronomy

Mar. 03, 2015 Rise Set
Actual Time
Civil Twilight
Nautical Twilight
Astronomical Twilight
Moon
Length of Visible Light
Length of Day
Tomorrow will be .
, % of the Moon is Illuminated

Today's Extremes

State Highs State Lows

Community

WunderPhotos

Upload Photos

1,802,156 photos uploaded!

WunderBlogs® & News

Nearby

Air Quality

  Air Quality AQ Index Pollutant
Not available.

Snow Depth

Station Depth Elevation

Earthquake Activity

City Distance Mag. Time & Date
Minimum magnitude displayed is 2.5.

Coastal Water Temperatures

Place Temperature

Nearby Weather Stations